createdAt,value
2023-07-10T22:39:03.146Z,11.87
2023-07-10T22:40:03.165Z,11.03
2023-07-10T22:41:03.165Z,11.06
2023-07-10T22:42:03.164Z,11
2023-07-10T22:43:03.190Z,11.01
2023-07-10T22:44:03.178Z,11.04
2023-07-10T22:45:03.189Z,11.02
2023-07-10T22:46:03.385Z,10.96
2023-07-10T22:47:03.210Z,10.93
2023-07-10T22:48:03.271Z,10.9
2023-07-10T22:49:03.225Z,10.83
2023-07-10T22:50:03.234Z,10.81
2023-07-10T22:51:03.247Z,10.72
2023-07-10T22:52:03.250Z,10.72
2023-07-10T22:53:03.274Z,10.65
2023-07-10T22:54:03.264Z,10.65
2023-07-10T22:55:03.289Z,10.6
2023-07-10T22:56:03.479Z,10.55
2023-07-10T22:57:03.317Z,10.55
2023-07-10T22:58:03.326Z,10.5
2023-07-10T22:59:03.319Z,10.48
2023-07-10T23:00:03.320Z,10.45
2023-07-10T23:01:03.352Z,10.47
2023-07-10T23:02:03.339Z,10.44
2023-07-10T23:03:03.461Z,10.48
2023-07-10T23:04:03.526Z,10.43
2023-07-10T23:05:03.353Z,10.35
2023-07-10T23:06:03.578Z,10.34
2023-07-10T23:07:03.383Z,10.29
2023-07-10T23:08:03.432Z,10.26
2023-07-10T23:09:03.435Z,10.28
2023-07-10T23:10:03.443Z,10.28
2023-07-10T23:11:04.758Z,10.21
2023-07-10T23:12:03.483Z,10.32
2023-07-10T23:13:03.532Z,10.38
2023-07-10T23:14:03.556Z,10.36
2023-07-10T23:15:03.517Z,10.36
2023-07-10T23:16:03.631Z,10.32
2023-07-10T23:17:03.555Z,10.37
2023-07-10T23:18:03.577Z,10.44
2023-07-10T23:19:03.568Z,10.44
2023-07-10T23:20:03.585Z,10.38
2023-07-10T23:21:03.571Z,10.48
2023-07-10T23:22:03.584Z,10.47
2023-07-10T23:23:03.587Z,10.49
2023-07-10T23:24:03.626Z,10.49
2023-07-10T23:25:03.604Z,10.49
2023-07-10T23:26:03.928Z,10.48
2023-07-10T23:27:03.640Z,10.42
2023-07-10T23:28:03.715Z,10.42
2023-07-10T23:29:03.741Z,10.43
2023-07-10T23:30:03.732Z,10.54
2023-07-10T23:31:03.905Z,10.51
2023-07-10T23:32:03.786Z,10.51
2023-07-10T23:33:03.888Z,10.55
2023-07-10T23:34:03.839Z,10.55
2023-07-10T23:35:03.860Z,10.61
2023-07-10T23:36:04.275Z,10.51
2023-07-10T23:37:03.887Z,10.5
2023-07-10T23:38:03.902Z,10.64
2023-07-10T23:39:03.914Z,10.57
2023-07-10T23:40:03.958Z,10.58
2023-07-10T23:41:03.956Z,10.56
2023-07-10T23:42:03.980Z,10.56
2023-07-10T23:43:04.001Z,10.59
2023-07-10T23:44:04.015Z,10.55
2023-07-10T23:45:04.028Z,10.49
2023-07-10T23:46:04.349Z,10.49
2023-07-10T23:47:04.063Z,10.48
2023-07-10T23:48:04.089Z,10.48
2023-07-10T23:49:04.100Z,10.49
2023-07-10T23:50:04.093Z,10.49
2023-07-10T23:51:04.107Z,10.45
2023-07-10T23:52:03.107Z,10.41
2023-07-10T23:53:03.136Z,10.46
2023-07-10T23:54:03.154Z,10.46
2023-07-10T23:55:03.197Z,10.46
2023-07-10T23:56:03.244Z,10.42
2023-07-10T23:57:11.545Z,10.34
2023-07-10T23:58:03.258Z,10.33
2023-07-10T23:59:03.282Z,10.3
